createdAt,value
2023-05-13T00:00:15.424Z,10.35
2023-05-13T00:02:45.026Z,10.32
2023-05-13T00:05:17.669Z,10.33
2023-05-13T00:07:47.172Z,10.29
2023-05-13T00:10:16.685Z,10.24
2023-05-13T00:12:46.269Z,10.19
2023-05-13T00:15:16.051Z,10.17
2023-05-13T00:17:45.602Z,10.13
2023-05-13T00:20:17.719Z,10.09
2023-05-13T00:22:47.232Z,10.08
2023-05-13T00:25:16.741Z,10.04
2023-05-13T00:27:46.233Z,10.05
2023-05-13T00:30:15.863Z,10.00
2023-05-13T00:32:45.438Z,9.97
2023-05-13T00:35:17.573Z,9.97
2023-05-13T00:37:47.196Z,9.92
2023-05-13T00:40:20.856Z,9.92
2023-05-13T00:42:50.989Z,9.88
2023-05-13T00:45:20.797Z,9.84
2023-05-13T00:47:50.537Z,9.81
2023-05-13T00:50:23.449Z,9.79
2023-05-13T00:52:53.984Z,9.75
2023-05-13T00:55:23.881Z,9.73
2023-05-13T00:57:53.351Z,9.70
2023-05-13T01:00:23.325Z,9.68
2023-05-13T01:02:56.567Z,9.64
2023-05-13T01:05:32.569Z,9.55
2023-05-13T01:08:07.049Z,9.54
2023-05-13T01:10:41.524Z,9.50
2023-05-13T01:13:13.100Z,9.51
2023-05-13T01:15:45.702Z,9.54
2023-05-13T01:18:18.646Z,9.50
2023-05-13T01:20:50.763Z,9.47
2023-05-13T01:23:22.904Z,9.44
2023-05-13T01:25:52.420Z,9.38
2023-05-13T01:28:22.230Z,9.37
2023-05-13T01:30:51.952Z,9.34
2023-05-13T01:33:21.855Z,9.35
2023-05-13T01:35:51.662Z,9.28
2023-05-13T01:38:24.364Z,9.25
2023-05-13T01:40:54.006Z,9.22
2023-05-13T01:43:23.548Z,9.20
2023-05-13T01:45:53.652Z,9.18
2023-05-13T01:48:24.170Z,9.18
2023-05-13T01:50:53.710Z,9.16
2023-05-13T01:53:25.837Z,9.17
2023-05-13T01:55:55.386Z,9.15
2023-05-13T01:58:24.944Z,9.12
2023-05-13T02:00:54.412Z,9.10
2023-05-13T02:03:23.998Z,9.07
2023-05-13T02:05:53.569Z,9.01
2023-05-13T02:08:27.884Z,9.02
2023-05-13T02:10:58.632Z,8.94
2023-05-13T02:13:28.364Z,8.91
2023-05-13T02:15:58.512Z,8.87
2023-05-13T02:18:28.262Z,8.86
2023-05-13T02:20:57.881Z,8.85
2023-05-13T02:23:30.058Z,8.86
2023-05-13T02:25:59.519Z,8.84
2023-05-13T02:28:29.151Z,9.11
2023-05-13T02:30:58.649Z,9.66
2023-05-13T02:33:28.155Z,10.03
2023-05-13T02:35:57.790Z,9.72
2023-05-13T02:38:29.985Z,9.91
2023-05-13T02:40:59.477Z,9.79
2023-05-13T02:43:30.058Z,9.72
2023-05-13T02:45:59.548Z,9.63
2023-05-13T02:48:29.139Z,9.59
2023-05-13T02:50:58.661Z,9.80
2023-05-13T02:53:30.986Z,9.80
2023-05-13T02:56:00.482Z,9.47
2023-05-13T02:58:30.010Z,9.19
2023-05-13T03:00:59.542Z,9.00
2023-05-13T03:03:29.299Z,8.87
2023-05-13T03:05:59.216Z,8.74
2023-05-13T03:08:31.369Z,8.60
2023-05-13T03:11:00.977Z,8.58
2023-05-13T03:13:30.469Z,8.53
2023-05-13T03:15:59.979Z,8.54
2023-05-13T03:18:31.682Z,8.47
2023-05-13T03:21:01.597Z,8.44
2023-05-13T03:23:34.866Z,8.39
2023-05-13T03:26:04.647Z,8.40
2023-05-13T03:28:34.191Z,8.34
2023-05-13T03:31:03.660Z,8.32
2023-05-13T03:33:33.210Z,8.29
2023-05-13T03:36:02.665Z,8.30
2023-05-13T03:38:34.784Z,8.28
2023-05-13T03:44:14.421Z,8.19
2023-05-13T03:46:42.984Z,8.17
2023-05-13T03:49:11.598Z,8.16
2023-05-13T03:51:39.751Z,8.19
2023-05-13T03:54:07.940Z,8.15
2023-05-13T03:56:36.099Z,8.14
2023-05-13T03:59:04.356Z,8.18
2023-05-13T04:01:37.385Z,8.19
2023-05-13T04:04:07.305Z,8.18
2023-05-13T04:06:36.795Z,8.18
2023-05-13T04:09:07.881Z,8.27
2023-05-13T04:11:37.433Z,8.29
2023-05-13T04:14:06.918Z,8.27
2023-05-13T04:16:39.050Z,8.38
2023-05-13T04:19:08.667Z,8.41
2023-05-13T04:21:38.233Z,8.46
2023-05-13T04:24:08.888Z,8.48
2023-05-13T04:26:38.367Z,8.55
2023-05-13T04:29:07.858Z,8.57
2023-05-13T04:31:40.007Z,8.58
2023-05-13T04:34:09.601Z,8.59
2023-05-13T04:36:39.055Z,8.62
2023-05-13T04:39:08.566Z,8.65
2023-05-13T04:41:38.070Z,8.69
2023-05-13T04:44:07.556Z,8.73
2023-05-13T04:46:40.663Z,8.80
2023-05-13T04:49:10.293Z,8.85
2023-05-13T04:51:40.193Z,8.84
2023-05-13T04:54:10.064Z,8.83
2023-05-13T04:56:39.919Z,8.83
2023-05-13T04:59:11.251Z,8.88
2023-05-13T05:01:43.447Z,8.89
2023-05-13T05:04:13.093Z,9.01
2023-05-13T05:06:42.694Z,9.04
2023-05-13T05:09:12.341Z,9.04
2023-05-13T05:11:41.887Z,9.12
2023-05-13T05:14:11.445Z,9.17
2023-05-13T05:16:43.571Z,9.19
2023-05-13T05:19:13.192Z,9.18
2023-05-13T05:21:42.757Z,9.21
2023-05-13T05:24:12.242Z,9.24
2023-05-13T05:26:42.860Z,9.41
2023-05-13T05:29:12.648Z,9.82
2023-05-13T05:31:44.828Z,10.08
2023-05-13T05:34:14.403Z,10.36
2023-05-13T05:36:43.868Z,10.56
2023-05-13T05:39:13.778Z,10.56
2023-05-13T05:41:43.304Z,10.77
2023-05-13T05:44:13.588Z,10.53
2023-05-13T05:46:45.782Z,10.46
2023-05-13T05:49:15.246Z,10.52
2023-05-13T05:51:44.811Z,10.60
2023-05-13T05:54:14.341Z,10.69
2023-05-13T05:56:43.955Z,10.67
2023-05-13T05:59:13.473Z,10.66
2023-05-13T06:01:46.335Z,10.73
2023-05-13T06:04:16.010Z,10.81
2023-05-13T06:06:46.258Z,10.86
2023-05-13T06:09:15.781Z,10.90
2023-05-13T06:11:45.310Z,11.03
2023-05-13T06:14:14.888Z,11.11
2023-05-13T06:16:47.029Z,11.26
2023-05-13T06:19:16.639Z,11.36
2023-05-13T06:21:46.277Z,11.47
2023-05-13T06:24:15.788Z,11.56
2023-05-13T06:26:45.275Z,11.68
2023-05-13T06:29:14.839Z,11.81
2023-05-13T06:31:47.026Z,11.92
2023-05-13T06:34:16.897Z,12.00
2023-05-13T06:36:46.471Z,12.11
2023-05-13T06:39:15.947Z,12.22
2023-05-13T06:41:45.639Z,12.34
2023-05-13T06:44:15.208Z,12.42
2023-05-13T06:46:47.306Z,12.51
2023-05-13T06:49:16.800Z,12.62
2023-05-13T06:51:47.107Z,12.66
2023-05-13T06:54:17.001Z,12.76
2023-05-13T06:56:46.533Z,12.89
2023-05-13T06:59:16.567Z,12.99
2023-05-13T07:01:48.714Z,13.07
2023-05-13T07:04:18.314Z,13.15
2023-05-13T07:06:49.141Z,13.21
2023-05-13T07:09:18.652Z,13.31
2023-05-13T07:11:48.207Z,13.44
2023-05-13T07:14:17.786Z,13.53
2023-05-13T07:16:49.953Z,13.66
2023-05-13T07:19:19.756Z,13.77
2023-05-13T07:21:49.504Z,13.88
2023-05-13T07:24:18.974Z,13.93
2023-05-13T07:26:48.537Z,14.06
2023-05-13T07:29:18.225Z,14.11
2023-05-13T07:31:50.436Z,14.29
2023-05-13T07:34:19.922Z,14.39
2023-05-13T07:36:49.601Z,14.53
2023-05-13T07:39:19.223Z,14.66
2023-05-13T07:41:48.745Z,14.69
2023-05-13T07:44:18.233Z,14.69
2023-05-13T07:46:53.646Z,14.81
2023-05-13T07:49:24.020Z,14.95
2023-05-13T07:51:53.564Z,15.11
2023-05-13T07:54:23.065Z,15.21
2023-05-13T07:56:52.543Z,15.30
2023-05-13T07:59:22.067Z,15.30
2023-05-13T08:01:54.199Z,15.40
2023-05-13T08:04:23.917Z,15.52
2023-05-13T08:06:53.741Z,15.72
2023-05-13T08:09:23.235Z,15.79
2023-05-13T08:11:52.800Z,15.95
2023-05-13T08:14:22.378Z,15.99
2023-05-13T08:16:54.589Z,16.09
2023-05-13T08:19:24.322Z,16.23
2023-05-13T08:21:53.899Z,16.40
2023-05-13T08:24:23.406Z,16.49
2023-05-13T08:26:52.989Z,16.60
2023-05-13T08:29:22.518Z,16.63
2023-05-13T08:31:54.723Z,16.77
2023-05-13T08:34:24.320Z,16.81
2023-05-13T08:36:53.921Z,16.94
2023-05-13T08:39:23.484Z,17.04
2023-05-13T08:41:55.058Z,17.18
2023-05-13T08:44:28.808Z,17.31
2023-05-13T08:47:06.362Z,17.40
2023-05-13T08:49:37.007Z,17.58
2023-05-13T08:52:06.991Z,17.55
2023-05-13T08:54:37.111Z,17.60
2023-05-13T08:57:07.193Z,17.78
2023-05-13T08:59:36.688Z,17.92
2023-05-13T09:02:09.224Z,17.93
2023-05-13T09:04:39.174Z,18.02
2023-05-13T09:07:08.848Z,18.21
2023-05-13T09:09:38.566Z,18.29
2023-05-13T09:12:08.964Z,18.32
2023-05-13T09:14:40.719Z,18.43
2023-05-13T09:17:12.828Z,18.52
2023-05-13T09:19:42.635Z,18.59
2023-05-13T09:22:20.024Z,18.67
2023-05-13T09:24:56.614Z,18.83
2023-05-13T09:27:39.782Z,18.90
2023-05-13T09:30:10.893Z,18.97
2023-05-13T09:32:44.399Z,19.06
2023-05-13T09:35:19.171Z,19.19
2023-05-13T09:37:50.028Z,19.22
2023-05-13T09:40:20.270Z,19.29
2023-05-13T09:42:49.853Z,19.32
2023-05-13T09:45:20.488Z,19.42
2023-05-13T09:47:55.320Z,19.58
2023-05-13T09:50:25.259Z,19.71
2023-05-13T09:52:54.864Z,19.69
2023-05-13T09:55:25.664Z,19.70
2023-05-13T09:57:56.403Z,19.83
2023-05-13T10:00:32.836Z,19.84
2023-05-13T10:03:06.281Z,20.03
2023-05-13T10:05:36.293Z,20.17
2023-05-13T10:08:06.349Z,20.31
2023-05-13T10:10:38.018Z,20.20
2023-05-13T10:13:10.985Z,20.27
2023-05-13T10:15:49.262Z,20.44
2023-05-13T10:18:22.799Z,20.47
2023-05-13T10:20:53.960Z,20.59
2023-05-13T10:23:24.856Z,20.71
2023-05-13T10:25:56.555Z,20.72
2023-05-13T10:28:26.543Z,20.84
2023-05-13T10:30:56.010Z,20.72
2023-05-13T10:33:29.766Z,20.78
2023-05-13T10:36:08.087Z,20.84
2023-05-13T10:38:48.300Z,20.81
2023-05-13T10:41:30.037Z,20.76
2023-05-13T10:43:59.837Z,20.87
2023-05-13T10:46:29.523Z,21.00
2023-05-13T10:49:02.592Z,21.10
2023-05-13T10:51:32.270Z,21.17
2023-05-13T10:54:01.909Z,21.27
2023-05-13T10:56:31.702Z,21.25
2023-05-13T10:59:02.606Z,21.31
2023-05-13T11:01:33.874Z,21.17
2023-05-13T11:04:08.099Z,21.31
2023-05-13T11:06:39.551Z,21.45
2023-05-13T11:09:09.963Z,21.37
2023-05-13T11:11:39.447Z,21.26
2023-05-13T11:14:11.423Z,21.17
2023-05-13T11:16:41.075Z,21.22
2023-05-13T11:19:22.505Z,21.44
2023-05-13T11:21:55.213Z,21.59
2023-05-13T11:24:25.389Z,21.61
2023-05-13T11:26:56.460Z,22.04
2023-05-13T11:29:34.342Z,22.24
2023-05-13T11:32:05.098Z,21.85
2023-05-13T11:34:37.735Z,21.27
2023-05-13T11:37:11.924Z,20.92
2023-05-13T11:39:42.543Z,20.63
2023-05-13T11:42:12.907Z,20.86
2023-05-13T11:44:48.418Z,21.28
2023-05-13T11:47:17.940Z,21.29
2023-05-13T11:49:51.662Z,21.54
2023-05-13T11:52:22.490Z,21.85
2023-05-13T11:54:53.959Z,22.14
2023-05-13T11:57:24.514Z,21.98
2023-05-13T12:00:01.152Z,21.69
2023-05-13T12:02:35.351Z,21.64
2023-05-13T12:05:08.899Z,22.17
2023-05-13T12:07:39.763Z,22.59
2023-05-13T12:10:10.635Z,22.14
2023-05-13T12:12:41.401Z,21.78
2023-05-13T12:15:13.536Z,21.59
2023-05-13T12:17:43.264Z,21.98
2023-05-13T12:20:17.361Z,22.51
2023-05-13T12:22:56.925Z,22.88
2023-05-13T12:25:39.557Z,23.24
2023-05-13T12:28:10.888Z,23.33
2023-05-13T12:30:41.473Z,22.93
2023-05-13T12:33:16.722Z,22.49
2023-05-13T12:35:50.704Z,21.99
2023-05-13T12:38:21.816Z,21.65
2023-05-13T12:40:52.518Z,21.27
2023-05-13T12:43:22.409Z,21.87
2023-05-13T12:45:56.768Z,22.54
2023-05-13T12:48:27.354Z,23.26
2023-05-13T12:51:01.288Z,23.74
2023-05-13T12:53:31.704Z,23.44
2023-05-13T12:56:01.240Z,22.71
2023-05-13T12:58:31.079Z,22.10
2023-05-13T13:01:00.689Z,22.21
2023-05-13T13:03:30.420Z,22.62
2023-05-13T13:06:02.580Z,23.52
2023-05-13T13:08:32.118Z,24.47
2023-05-13T13:11:02.274Z,24.25
2023-05-13T13:13:31.856Z,24.71
2023-05-13T13:16:01.624Z,24.77
2023-05-13T13:18:31.228Z,24.94
2023-05-13T13:21:03.396Z,24.94
2023-05-13T13:23:32.930Z,25.05
2023-05-13T13:26:02.463Z,25.26
2023-05-13T13:28:32.122Z,24.86
2023-05-13T13:31:01.662Z,25.21
2023-05-13T13:33:31.169Z,25.15
2023-05-13T13:36:03.396Z,25.53
2023-05-13T13:38:32.934Z,25.31
2023-05-13T13:41:02.457Z,25.60
2023-05-13T13:43:31.929Z,24.77
2023-05-13T13:46:01.512Z,24.03
2023-05-13T13:48:31.056Z,23.29
2023-05-13T13:51:03.140Z,23.33
2023-05-13T13:53:32.649Z,22.84
2023-05-13T13:56:02.198Z,22.54
2023-05-13T13:58:31.717Z,22.43
2023-05-13T14:01:01.231Z,22.79
2023-05-13T14:03:30.933Z,23.40
2023-05-13T14:06:03.112Z,23.71
2023-05-13T14:08:32.598Z,23.91
2023-05-13T14:11:02.120Z,24.20
2023-05-13T14:13:31.580Z,24.19
2023-05-13T14:16:01.160Z,24.24
2023-05-13T14:18:30.732Z,24.00
2023-05-13T14:21:02.863Z,23.49
2023-05-13T14:23:32.423Z,22.77
2023-05-13T14:26:01.981Z,22.34
2023-05-13T14:28:31.621Z,22.58
2023-05-13T14:31:01.185Z,22.82
2023-05-13T14:33:30.802Z,22.94
2023-05-13T14:36:02.876Z,22.95
2023-05-13T14:38:32.449Z,23.06
2023-05-13T14:41:02.022Z,22.79
2023-05-13T14:43:31.569Z,22.48
2023-05-13T14:46:01.043Z,22.25
2023-05-13T14:48:30.592Z,22.44
2023-05-13T14:51:00.150Z,22.59
2023-05-13T14:53:32.314Z,22.75
2023-05-13T14:56:01.853Z,23.10
2023-05-13T14:58:31.485Z,23.08
2023-05-13T15:01:01.154Z,23.11
2023-05-13T15:03:31.001Z,22.77
2023-05-13T15:06:00.556Z,22.62
2023-05-13T15:08:32.685Z,22.43
2023-05-13T15:11:02.444Z,22.42
2023-05-13T15:13:35.278Z,22.37
2023-05-13T15:16:04.938Z,22.46
2023-05-13T15:18:34.622Z,22.44
2023-05-13T15:21:04.165Z,22.33
2023-05-13T15:23:36.609Z,22.24
2023-05-13T15:26:06.136Z,22.19
2023-05-13T15:28:35.705Z,21.76
2023-05-13T15:31:05.302Z,21.63
2023-05-13T15:33:35.339Z,21.79
2023-05-13T15:36:05.800Z,21.83
2023-05-13T15:38:37.906Z,21.73
2023-05-13T15:41:07.848Z,21.61
2023-05-13T15:43:37.364Z,21.62
2023-05-13T15:46:07.581Z,21.63
2023-05-13T15:48:37.718Z,21.65
2023-05-13T15:51:07.783Z,21.75
2023-05-13T15:53:39.869Z,21.80
2023-05-13T15:56:09.923Z,21.82
2023-05-13T15:58:39.441Z,21.79
2023-05-13T16:01:09.072Z,21.55
2023-05-13T16:03:38.944Z,21.41
2023-05-13T16:06:08.635Z,21.44
2023-05-13T16:08:40.778Z,21.25
2023-05-13T16:11:13.091Z,21.34
2023-05-13T16:13:42.742Z,21.64
2023-05-13T16:16:12.319Z,21.62
2023-05-13T16:18:43.155Z,21.62
2023-05-13T16:21:12.718Z,21.60
2023-05-13T16:23:44.874Z,21.75
2023-05-13T16:26:14.493Z,21.71
2023-05-13T16:28:43.965Z,21.89
2023-05-13T16:31:13.511Z,22.19
2023-05-13T16:33:43.085Z,21.87
2023-05-13T16:36:13.470Z,21.68
2023-05-13T16:38:46.715Z,21.61
2023-05-13T16:41:16.198Z,21.75
2023-05-13T16:43:46.065Z,21.77
2023-05-13T16:46:17.385Z,21.51
2023-05-13T16:48:47.341Z,21.95
2023-05-13T16:51:16.919Z,22.39
2023-05-13T16:53:48.992Z,22.24
2023-05-13T16:56:18.510Z,22.54
2023-05-13T16:58:48.053Z,22.70
2023-05-13T17:01:17.667Z,22.56
2023-05-13T17:03:47.295Z,22.51
2023-05-13T17:06:16.824Z,22.15
2023-05-13T17:08:48.949Z,22.23
2023-05-13T17:11:18.785Z,22.39
2023-05-13T17:13:48.355Z,22.48
2023-05-13T17:16:17.973Z,22.47
2023-05-13T17:18:47.543Z,21.80
2023-05-13T17:21:17.180Z,21.62
2023-05-13T17:23:49.250Z,21.23
2023-05-13T17:26:18.801Z,21.14
2023-05-13T17:28:48.371Z,20.66
2023-05-13T17:31:17.977Z,20.71
2023-05-13T17:33:47.585Z,20.65
2023-05-13T17:36:17.154Z,20.52
2023-05-13T17:38:49.429Z,20.42
2023-05-13T17:41:18.957Z,20.08
2023-05-13T17:43:48.984Z,19.89
2023-05-13T17:46:18.491Z,19.75
2023-05-13T17:48:48.136Z,19.69
2023-05-13T17:51:17.758Z,19.52
2023-05-13T17:53:49.858Z,19.47
2023-05-13T17:56:19.341Z,19.24
2023-05-13T17:58:48.805Z,19.10
2023-05-13T18:01:19.859Z,19.05
2023-05-13T18:03:49.430Z,18.87
2023-05-13T18:06:19.074Z,18.72
2023-05-13T18:08:51.181Z,18.65
2023-05-13T18:11:22.185Z,18.42
2023-05-13T18:13:51.749Z,18.22
2023-05-13T18:16:21.347Z,18.10
2023-05-13T18:18:51.254Z,17.95
2023-05-13T18:21:20.808Z,17.78
2023-05-13T18:23:52.854Z,17.73
2023-05-13T18:26:23.210Z,17.70
2023-05-13T18:28:52.721Z,17.60
2023-05-13T18:31:22.286Z,17.55
2023-05-13T18:33:51.765Z,17.50
2023-05-13T18:36:21.292Z,17.43
2023-05-13T18:38:53.338Z,17.28
2023-05-13T18:41:22.823Z,17.20
2023-05-13T18:43:52.424Z,17.11
2023-05-13T18:46:22.649Z,17.08
2023-05-13T18:48:52.190Z,17.06
2023-05-13T18:51:21.736Z,16.97
2023-05-13T18:53:53.794Z,16.95
2023-05-13T18:56:23.437Z,16.82
2023-05-13T18:58:52.935Z,16.70
2023-05-13T19:01:22.622Z,16.67
2023-05-13T19:03:52.483Z,16.51
2023-05-13T19:06:22.209Z,16.44
2023-05-13T19:08:54.312Z,16.32
2023-05-13T19:11:24.267Z,16.19
2023-05-13T19:13:54.132Z,16.13
2023-05-13T19:16:23.758Z,16.10
2023-05-13T19:18:53.434Z,15.98
2023-05-13T19:21:23.625Z,15.91
2023-05-13T19:23:55.733Z,15.86
2023-05-13T19:26:25.261Z,15.82
2023-05-13T19:28:55.160Z,15.74
2023-05-13T19:31:24.756Z,15.61
2023-05-13T19:33:54.304Z,15.51
2023-05-13T19:36:26.387Z,15.42
2023-05-13T19:38:58.599Z,15.43
2023-05-13T19:41:28.117Z,15.35
2023-05-13T19:43:57.633Z,15.35
2023-05-13T19:46:27.184Z,15.23
2023-05-13T19:48:56.684Z,15.21
2023-05-13T19:51:26.927Z,15.18
2023-05-13T19:53:59.013Z,15.11
2023-05-13T19:56:28.976Z,15.10
2023-05-13T19:58:58.443Z,15.10
2023-05-13T20:01:28.106Z,15.00
2023-05-13T20:03:59.253Z,14.89
2023-05-13T20:06:29.025Z,14.77
2023-05-13T20:09:02.088Z,14.69
2023-05-13T20:11:31.679Z,14.60
2023-05-13T20:14:01.675Z,14.53
2023-05-13T20:16:31.199Z,14.51
2023-05-13T20:19:00.928Z,14.48
2023-05-13T20:21:31.042Z,14.43
2023-05-13T20:24:03.112Z,14.42
2023-05-13T20:26:35.096Z,14.40
2023-05-13T20:29:04.662Z,14.34
2023-05-13T20:31:34.171Z,14.27
2023-05-13T20:34:03.864Z,14.28
2023-05-13T20:36:33.372Z,14.24
2023-05-13T20:39:05.495Z,14.20
2023-05-13T20:41:35.036Z,14.12
2023-05-13T20:44:04.584Z,14.09
2023-05-13T20:46:34.114Z,14.01
2023-05-13T20:49:03.678Z,13.97
2023-05-13T20:51:33.755Z,13.90
2023-05-13T20:54:05.958Z,13.86
2023-05-13T20:56:35.430Z,13.87
2023-05-13T20:59:04.938Z,13.78
2023-05-13T21:01:34.663Z,13.75
2023-05-13T21:04:06.150Z,13.71
2023-05-13T21:06:36.341Z,13.69
2023-05-13T21:09:08.713Z,13.62
2023-05-13T21:11:38.215Z,13.54
2023-05-13T21:14:07.717Z,13.49
2023-05-13T21:16:37.220Z,13.48
2023-05-13T21:19:06.859Z,13.37
2023-05-13T21:21:36.501Z,13.36
2023-05-13T21:24:09.421Z,13.32
2023-05-13T21:26:38.962Z,13.22
2023-05-13T21:29:08.416Z,13.19
2023-05-13T21:31:38.022Z,13.13
2023-05-13T21:34:07.589Z,13.09
2023-05-13T21:36:39.032Z,13.08
2023-05-13T21:39:11.304Z,13.03
2023-05-13T21:41:40.781Z,13.00
2023-05-13T21:44:10.281Z,12.95
2023-05-13T21:46:39.772Z,12.96
2023-05-13T21:49:09.313Z,12.92
2023-05-13T21:51:39.489Z,12.90
2023-05-13T21:54:11.584Z,12.86
2023-05-13T21:56:41.102Z,12.82
2023-05-13T21:59:10.620Z,12.76
2023-05-13T22:01:40.084Z,12.72
2023-05-13T22:04:09.657Z,12.71
2023-05-13T22:06:39.154Z,12.71
2023-05-13T22:09:11.291Z,12.70
2023-05-13T22:11:40.768Z,12.68
2023-05-13T22:14:10.225Z,12.61
2023-05-13T22:16:39.877Z,12.63
2023-05-13T22:19:09.606Z,12.59
2023-05-13T22:21:39.337Z,12.60
2023-05-13T22:24:11.820Z,12.53
2023-05-13T22:26:42.377Z,12.52
2023-05-13T22:29:11.931Z,12.47
2023-05-13T22:31:41.515Z,12.36
2023-05-13T22:34:11.036Z,12.40
2023-05-13T22:36:43.713Z,12.33
2023-05-13T22:39:17.364Z,12.25
2023-05-13T22:41:46.920Z,12.22
2023-05-13T22:44:16.475Z,12.18
2023-05-13T22:46:46.085Z,12.18
2023-05-13T22:49:15.726Z,12.15
2023-05-13T22:51:45.212Z,12.11
2023-05-13T22:54:17.278Z,12.02
2023-05-13T22:56:46.751Z,11.98
2023-05-13T22:59:16.245Z,11.97
2023-05-13T23:01:45.883Z,11.97
2023-05-13T23:04:15.465Z,11.93
2023-05-13T23:06:45.091Z,11.90
2023-05-13T23:09:17.140Z,11.89
2023-05-13T23:11:46.690Z,11.92
2023-05-13T23:14:16.207Z,11.92
2023-05-13T23:16:45.796Z,11.91
2023-05-13T23:19:15.445Z,11.89
2023-05-13T23:21:44.976Z,11.91
2023-05-13T23:24:17.023Z,11.90
2023-05-13T23:26:47.542Z,11.88
2023-05-13T23:29:17.149Z,11.86
2023-05-13T23:31:46.939Z,11.84
2023-05-13T23:34:16.527Z,11.79
2023-05-13T23:36:46.004Z,11.77
2023-05-13T23:39:18.186Z,11.75
2023-05-13T23:41:47.699Z,11.68
2023-05-13T23:44:17.189Z,11.64
2023-05-13T23:46:46.704Z,11.63
2023-05-13T23:49:17.613Z,11.56
2023-05-13T23:51:47.130Z,11.51
2023-05-13T23:54:19.413Z,11.50
2023-05-13T23:56:49.027Z,11.57
2023-05-13T23:59:18.570Z,11.65
